Time;durP1;ratioP1;P1;durP2;ratioP2;P2;SDS_P1;SDS_P2;PMS_P1;PMS_P2;Temp;Humidity;BMP_temperature;BMP_pressure;BME280_temperature;BME280_humidity;BME280_pressure;Samples;Min_cycle;Max_cycle;Signal;HPM_P1;HPM_P2
2021/05/22 00:01:11;;;;;;;2.23;1.40;;;12.00;85.50;;;;;;5002098;28;20456;-48
2021/05/22 00:03:40;;;;;;;3.03;1.23;;;12.00;85.20;;;;;;5006018;28;20953;-48
2021/05/22 00:06:08;;;;;;;2.40;1.40;;;12.00;85.10;;;;;;5002478;28;20461;-48
2021/05/22 00:08:36;;;;;;;2.50;1.37;;;12.00;85.20;;;;;;5005834;28;20476;-48
2021/05/22 00:11:04;;;;;;;4.33;1.13;;;12.00;85.20;;;;;;5005439;28;20475;-48
2021/05/22 00:13:32;;;;;;;5.60;1.67;;;12.00;85.50;;;;;;5004514;28;21012;-48
2021/05/22 00:16:00;;;;;;;3.83;1.50;;;11.90;85.80;;;;;;5004312;28;20531;-48
2021/05/22 00:18:28;;;;;;;3.57;1.60;;;11.90;85.80;;;;;;5003556;28;20471;-48
2021/05/22 00:20:57;;;;;;;5.43;1.60;;;11.90;85.50;;;;;;5006529;28;20856;-48
2021/05/22 00:23:25;;;;;;;1.90;1.00;;;11.90;85.60;;;;;;5004808;28;20454;-48
2021/05/22 00:25:53;;;;;;;1.57;1.20;;;11.90;85.80;;;;;;5004572;28;20539;-48
2021/05/22 00:28:21;;;;;;;6.07;1.40;;;11.90;85.90;;;;;;5007829;28;20884;-48
2021/05/22 00:30:50;;;;;;;5.20;1.70;;;12.00;85.70;;;;;;5005964;28;20798;-48
2021/05/22 00:33:18;;;;;;;1.73;0.93;;;12.00;85.60;;;;;;5006004;28;20492;-48
2021/05/22 00:35:46;;;;;;;3.30;1.30;;;12.00;85.50;;;;;;5007027;28;20456;-48
2021/05/22 00:38:14;;;;;;;1.73;1.50;;;11.90;85.70;;;;;;5007404;28;20468;-48
2021/05/22 00:40:42;;;;;;;3.33;1.50;;;11.90;85.60;;;;;;5007066;28;20820;-48
2021/05/22 00:43:10;;;;;;;3.30;1.47;;;11.90;85.50;;;;;;5008697;28;20471;-48
2021/05/22 00:45:38;;;;;;;2.13;1.30;;;11.90;85.60;;;;;;5007030;28;20464;-48
2021/05/22 00:48:07;;;;;;;2.23;1.50;;;11.80;85.80;;;;;;5007712;28;20460;-48
2021/05/22 00:50:38;;;;;;;3.10;1.17;;;11.80;85.70;;;;;;5007758;28;20466;-48
2021/05/22 00:53:07;;;;;;;2.13;1.67;;;11.80;85.80;;;;;;5008059;28;20491;-48
2021/05/22 00:55:36;;;;;;;1.77;1.10;;;11.80;85.80;;;;;;5007197;28;21055;-48
2021/05/22 00:58:05;;;;;;;3.10;1.27;;;11.80;85.90;;;;;;5006871;28;20926;-48
2021/05/22 01:00:39;;;;;;;3.33;2.20;;;11.90;86.10;;;;;;5005949;28;20449;-48
2021/05/22 01:03:10;;;;;;;1.83;1.07;;;11.90;86.30;;;;;;5003429;28;20473;-48
2021/05/22 01:05:42;;;;;;;1.80;1.27;;;11.90;86.20;;;;;;5007466;28;20467;-48
2021/05/22 01:08:23;;;;;;;1.87;1.20;;;11.90;86.20;;;;;;5007761;28;20495;-48
2021/05/22 01:11:04;;;;;;;2.30;1.07;;;11.90;86.20;;;;;;5006436;28;20839;-48
2021/05/22 01:13:37;;;;;;;3.47;1.60;;;11.90;86.30;;;;;;5004716;28;20492;-48
2021/05/22 01:16:07;;;;;;;3.27;1.13;;;11.80;86.30;;;;;;5004600;28;20456;-48
2021/05/22 01:18:36;;;;;;;2.50;1.40;;;11.80;86.30;;;;;;5007542;28;20471;-48
2021/05/22 01:21:04;;;;;;;3.80;1.30;;;11.90;86.40;;;;;;5008317;28;20471;-48
2021/05/22 01:24:01;;;;;;;2.07;1.40;;;11.90;86.30;;;;;;5009797;28;20474;-48
2021/05/22 01:26:31;;;;;;;3.03;1.70;;;11.90;86.20;;;;;;4994808;28;20472;-48
2021/05/22 01:29:01;;;;;;;4.03;1.40;;;11.80;86.30;;;;;;5004661;28;20479;-48
2021/05/22 01:31:32;;;;;;;4.37;1.80;;;11.80;86.30;;;;;;4989222;28;20460;-48
2021/05/22 01:34:00;;;;;;;2.47;1.90;;;11.90;86.40;;;;;;5006742;28;20488;-47
2021/05/22 01:36:28;;;;;;;2.50;1.47;;;11.90;86.20;;;;;;5006479;28;20456;-48
2021/05/22 01:38:56;;;;;;;3.60;2.77;;;11.90;86.30;;;;;;5006566;28;20872;-48
2021/05/22 01:41:24;;;;;;;4.53;1.63;;;11.90;86.20;;;;;;5005245;28;20475;-48
2021/05/22 01:43:56;;;;;;;1.80;1.47;;;11.90;86.10;;;;;;5006136;28;20480;-48
2021/05/22 01:46:26;;;;;;;3.33;1.30;;;12.00;86.10;;;;;;5003801;28;20464;-48
2021/05/22 01:48:56;;;;;;;4.67;1.80;;;11.90;86.20;;;;;;5005854;28;20456;-48
2021/05/22 01:51:27;;;;;;;6.83;1.60;;;12.00;86.00;;;;;;5006481;28;20515;-48
2021/05/22 01:53:55;;;;;;;4.60;2.00;;;12.00;84.10;;;;;;5007031;28;20480;-48
2021/05/22 01:56:23;;;;;;;1.90;1.30;;;12.00;84.50;;;;;;5006822;28;20467;-48
2021/05/22 01:58:52;;;;;;;2.53;1.40;;;11.90;85.10;;;;;;5004798;28;20460;-48
2021/05/22 02:01:24;;;;;;;1.40;1.13;;;11.90;85.10;;;;;;5003366;28;20456;-48
2021/05/22 02:03:56;;;;;;;1.27;1.17;;;11.80;83.90;;;;;;5006241;28;20464;-48
2021/05/22 02:06:30;;;;;;;2.13;1.40;;;11.80;83.40;;;;;;5006624;28;20456;-48
2021/05/22 02:09:01;;;;;;;1.93;1.20;;;11.70;84.30;;;;;;5007073;28;20992;-48
2021/05/22 02:11:34;;;;;;;1.70;1.07;;;11.70;84.90;;;;;;5005217;28;20472;-48
2021/05/22 02:14:06;;;;;;;1.63;1.13;;;11.70;84.70;;;;;;5008527;28;21062;-48
2021/05/22 02:16:42;;;;;;;3.63;1.60;;;11.70;84.60;;;;;;5006130;28;20471;-48
2021/05/22 02:19:11;;;;;;;4.87;1.00;;;11.60;84.40;;;;;;5005760;28;20495;-48
2021/05/22 02:21:42;;;;;;;3.50;1.53;;;11.60;84.70;;;;;;5006403;28;20473;-48
2021/05/22 02:24:15;;;;;;;6.30;1.60;;;11.60;84.90;;;;;;5006377;28;20455;-48
2021/05/22 02:26:43;;;;;;;3.67;1.40;;;11.60;85.10;;;;;;5006192;28;20461;-48
2021/05/22 02:29:20;;;;;;;1.97;1.03;;;11.50;84.80;;;;;;5004634;28;20452;-48
2021/05/22 02:31:50;;;;;;;2.83;1.47;;;11.50;85.10;;;;;;5006497;28;20484;-48
2021/05/22 02:34:23;;;;;;;1.67;1.13;;;11.50;84.90;;;;;;5006374;28;20484;-48
2021/05/22 02:36:54;;;;;;;2.70;1.20;;;11.50;84.70;;;;;;5005853;28;20871;-48
2021/05/22 02:39:23;;;;;;;2.80;1.13;;;11.40;84.10;;;;;;5003268;28;20495;-48
2021/05/22 02:41:53;;;;;;;1.53;1.30;;;11.40;84.40;;;;;;5006714;28;20463;-48
2021/05/22 02:44:25;;;;;;;2.83;1.60;;;11.40;84.20;;;;;;5007908;28;20476;-47
2021/05/22 02:46:54;;;;;;;2.23;1.63;;;11.30;84.30;;;;;;5007030;28;20464;-46
2021/05/22 02:49:27;;;;;;;8.53;1.90;;;11.30;84.80;;;;;;5004573;28;20527;-45
2021/05/22 02:51:58;;;;;;;1.53;1.33;;;11.30;84.60;;;;;;5005887;28;20456;-46
2021/05/22 02:54:30;;;;;;;1.87;1.70;;;11.30;84.60;;;;;;5005835;28;20484;-46
2021/05/22 02:56:58;;;;;;;1.70;1.60;;;11.20;84.80;;;;;;5004369;28;20472;-46
2021/05/22 02:59:27;;;;;;;2.00;1.80;;;11.20;84.80;;;;;;5004115;28;20873;-46
2021/05/22 03:01:57;;;;;;;1.40;1.30;;;11.20;84.80;;;;;;5003902;28;20457;-46
2021/05/22 03:04:25;;;;;;;2.30;1.90;;;11.20;85.00;;;;;;4988029;28;20460;-45
2021/05/22 03:06:53;;;;;;;4.40;2.03;;;11.20;84.80;;;;;;5004550;28;20900;-45
2021/05/22 03:09:21;;;;;;;1.50;1.40;;;11.20;84.60;;;;;;5005609;28;20480;-46
2021/05/22 03:11:49;;;;;;;7.37;1.70;;;11.20;84.60;;;;;;5004865;28;20460;-45
2021/05/22 03:14:17;;;;;;;4.13;1.97;;;11.20;83.80;;;;;;5001401;28;20915;-46
2021/05/22 03:16:45;;;;;;;3.30;2.17;;;11.20;84.00;;;;;;5003944;28;20495;-45
2021/05/22 03:19:13;;;;;;;1.40;1.30;;;11.20;83.70;;;;;;5006481;28;20449;-46
2021/05/22 03:21:41;;;;;;;2.80;1.50;;;11.10;83.90;;;;;;5005211;28;20456;-45
2021/05/22 03:24:09;;;;;;;2.70;1.93;;;11.10;84.30;;;;;;5005166;28;20466;-46
2021/05/22 03:26:37;;;;;;;4.00;1.60;;;11.10;84.30;;;;;;5002908;28;20472;-45
2021/05/22 03:29:05;;;;;;;2.93;1.93;;;11.10;84.90;;;;;;5004194;28;20838;-46
2021/05/22 03:31:34;;;;;;;7.20;2.03;;;11.00;83.70;;;;;;5004406;28;20460;-46
2021/05/22 03:34:02;;;;;;;2.13;1.60;;;11.00;84.10;;;;;;5001917;28;20496;-46
2021/05/22 03:36:31;;;;;;;1.97;1.60;;;11.00;83.40;;;;;;5004023;28;20534;-46
2021/05/22 03:38:59;;;;;;;10.10;5.10;;;10.90;83.20;;;;;;5005481;28;20491;-45
2021/05/22 03:41:27;;;;;;;2.60;2.03;;;10.90;83.60;;;;;;5004975;28;20957;-45
2021/05/22 03:43:55;;;;;;;3.57;2.20;;;10.80;83.70;;;;;;5003111;28;20472;-45
2021/05/22 03:46:23;;;;;;;1.77;1.67;;;10.80;83.50;;;;;;5004789;28;20447;-46
2021/05/22 03:48:51;;;;;;;2.10;1.87;;;10.80;84.40;;;;;;5004517;28;20468;-46
2021/05/22 03:51:19;;;;;;;8.00;1.60;;;10.80;83.50;;;;;;5001175;28;20973;-46
2021/05/22 03:53:46;;;;;;;2.13;1.60;;;10.80;84.00;;;;;;5002640;28;20496;-46
2021/05/22 03:56:15;;;;;;;4.90;1.70;;;10.80;84.80;;;;;;5000433;28;21028;-46
2021/05/22 03:58:43;;;;;;;3.10;1.63;;;10.80;84.90;;;;;;5002227;28;20456;-46
2021/05/22 04:01:11;;;;;;;2.70;1.67;;;10.80;85.00;;;;;;5003143;28;20459;-45
2021/05/22 04:03:39;;;;;;;4.17;2.17;;;10.80;84.40;;;;;;5001474;28;20483;-46
2021/05/22 04:06:07;;;;;;;3.33;1.70;;;10.80;84.60;;;;;;5003053;28;20499;-46
2021/05/22 04:08:38;;;;;;;4.57;1.30;;;10.90;84.20;;;;;;5004521;28;20491;-45
2021/05/22 04:11:06;;;;;;;2.30;1.33;;;10.90;84.40;;;;;;5003383;28;20473;-45
2021/05/22 04:13:34;;;;;;;4.40;2.00;;;10.90;83.50;;;;;;5002374;28;20743;-46
2021/05/22 04:16:02;;;;;;;5.43;2.10;;;10.80;84.40;;;;;;5001243;28;20742;-45
2021/05/22 04:18:30;;;;;;;3.10;1.90;;;10.90;84.40;;;;;;5004277;28;20468;-45
2021/05/22 04:20:59;;;;;;;3.10;1.90;;;10.90;84.40;;;;;;5002297;28;20534;-45
2021/05/22 04:23:27;;;;;;;2.33;1.90;;;10.90;84.50;;;;;;5003081;28;21821;-45
2021/05/22 04:25:55;;;;;;;5.50;1.90;;;10.90;84.50;;;;;;5002523;28;20459;-45
2021/05/22 04:28:23;;;;;;;4.37;2.90;;;11.00;84.50;;;;;;5001962;28;20487;-46
2021/05/22 04:30:52;;;;;;;5.70;2.00;;;11.00;84.60;;;;;;5004397;28;20861;-46
2021/05/22 04:33:20;;;;;;;7.23;2.10;;;11.00;84.30;;;;;;5004073;28;20456;-45
2021/05/22 04:35:48;;;;;;;6.83;2.40;;;11.00;83.40;;;;;;5002824;28;20463;-45
2021/05/22 04:38:16;;;;;;;4.53;2.43;;;11.00;83.20;;;;;;5002839;28;20682;-45
2021/05/22 04:40:44;;;;;;;4.00;1.93;;;11.00;84.10;;;;;;5000798;28;20466;-45
2021/05/22 04:43:13;;;;;;;4.67;2.83;;;11.00;84.00;;;;;;5002312;28;20475;-46
2021/05/22 04:45:42;;;;;;;5.40;2.60;;;11.00;83.00;;;;;;5003479;28;20472;-45
2021/05/22 04:48:11;;;;;;;4.97;2.03;;;11.10;82.40;;;;;;5002093;28;20472;-45
2021/05/22 04:50:39;;;;;;;6.13;2.90;;;11.10;83.40;;;;;;5002852;28;20465;-46
2021/05/22 04:53:07;;;;;;;3.33;2.63;;;11.10;83.60;;;;;;5004226;28;20479;-45
2021/05/22 04:55:36;;;;;;;6.60;2.50;;;11.10;83.60;;;;;;5002666;28;20934;-46
2021/05/22 04:58:07;;;;;;;3.67;2.40;;;11.10;83.80;;;;;;5001683;28;20467;-45
2021/05/22 05:00:36;;;;;;;4.83;2.03;;;11.10;81.70;;;;;;5003440;28;20453;-45
2021/05/22 05:03:04;;;;;;;5.07;3.10;;;11.20;82.30;;;;;;5001100;28;20474;-45
2021/05/22 05:05:32;;;;;;;6.27;4.00;;;11.20;81.20;;;;;;4988221;28;20460;-45
2021/05/22 05:08:00;;;;;;;4.50;1.90;;;11.20;82.00;;;;;;5002707;28;20460;-46
2021/05/22 05:10:29;;;;;;;6.23;2.00;;;11.20;81.50;;;;;;5002797;28;20460;-46
2021/05/22 05:12:57;;;;;;;5.37;2.10;;;11.20;81.00;;;;;;5000059;28;20468;-45
2021/05/22 05:15:25;;;;;;;5.10;2.13;;;11.20;80.90;;;;;;5005293;28;20996;-46
2021/05/22 05:17:53;;;;;;;3.77;2.53;;;11.20;80.60;;;;;;5007635;28;21048;-46
2021/05/22 05:20:21;;;;;;;3.43;2.13;;;11.20;81.50;;;;;;5005224;28;20468;-46
2021/05/22 05:22:51;;;;;;;7.43;4.50;;;11.20;81.20;;;;;;5006852;28;20460;-45
2021/05/22 05:25:19;;;;;;;4.80;2.70;;;11.20;80.00;;;;;;5009118;28;20556;-45
2021/05/22 05:27:47;;;;;;;5.33;2.70;;;11.20;79.90;;;;;;5005138;28;20455;-45
2021/05/22 05:30:16;;;;;;;5.13;2.40;;;11.20;80.40;;;;;;4989706;28;20468;-45
2021/05/22 05:32:45;;;;;;;3.50;2.87;;;11.20;80.00;;;;;;5005906;28;20475;-46
2021/05/22 05:35:13;;;;;;;5.70;3.00;;;11.20;80.00;;;;;;5004128;28;20488;-46
2021/05/22 05:37:41;;;;;;;8.40;2.30;;;11.20;80.90;;;;;;5005080;28;20460;-45
2021/05/22 05:40:10;;;;;;;6.50;2.17;;;11.30;80.10;;;;;;5003065;28;21082;-46
2021/05/22 05:42:38;;;;;;;5.77;2.43;;;11.30;79.30;;;;;;4988497;28;21015;-45
2021/05/22 05:45:07;;;;;;;10.33;2.67;;;11.40;78.90;;;;;;5005604;28;20460;-45
2021/05/22 05:47:35;;;;;;;5.13;2.20;;;11.40;79.90;;;;;;5005991;28;20471;-46
2021/05/22 05:50:03;;;;;;;7.43;2.90;;;11.40;78.10;;;;;;5005442;28;20476;-46
2021/05/22 05:52:31;;;;;;;2.93;2.10;;;11.40;78.90;;;;;;4990366;28;21061;-45
2021/05/22 05:54:59;;;;;;;5.77;2.20;;;11.50;78.30;;;;;;5006030;28;20484;-45
2021/05/22 05:57:27;;;;;;;5.03;2.27;;;11.50;78.40;;;;;;5004036;28;20495;-45
2021/05/22 05:59:55;;;;;;;4.80;2.33;;;11.50;78.40;;;;;;5003526;28;20457;-46
2021/05/22 06:02:23;;;;;;;5.57;2.10;;;11.50;77.20;;;;;;5004794;28;20448;-45
2021/05/22 06:04:54;;;;;;;6.20;1.83;;;11.50;76.80;;;;;;5004848;28;20484;-45
2021/05/22 06:07:22;;;;;;;5.57;2.50;;;11.60;78.00;;;;;;5007108;28;20464;-45
2021/05/22 06:09:50;;;;;;;7.63;1.90;;;11.50;78.30;;;;;;5003703;28;20954;-45
2021/05/22 06:12:19;;;;;;;2.63;1.50;;;11.60;77.90;;;;;;5004452;28;21051;-45
2021/05/22 06:14:56;;;;;;;3.80;1.70;;;11.60;77.20;;;;;;5005965;28;20488;-45
2021/05/22 06:17:25;;;;;;;3.47;1.70;;;11.70;76.50;;;;;;5004935;28;20456;-45
2021/05/22 06:19:52;;;;;;;4.20;1.53;;;11.70;77.40;;;;;;5006469;28;20467;-45
2021/05/22 06:22:21;;;;;;;11.83;3.07;;;11.80;77.20;;;;;;5005493;28;20847;-45
2021/05/22 06:24:49;;;;;;;7.93;2.23;;;11.80;77.30;;;;;;5002430;28;21070;-45
2021/05/22 06:27:17;;;;;;;7.53;1.80;;;11.90;76.70;;;;;;4988354;28;20867;-45
2021/05/22 06:29:45;;;;;;;7.97;2.30;;;12.00;76.20;;;;;;5005165;28;20514;-45
2021/05/22 06:32:13;;;;;;;3.57;1.87;;;12.10;75.90;;;;;;5005605;28;20801;-46
2021/05/22 06:34:41;;;;;;;2.60;1.70;;;12.10;74.70;;;;;;5006089;28;20506;-45
2021/05/22 06:37:09;;;;;;;9.37;3.20;;;12.10;74.70;;;;;;5005671;28;20476;-45
2021/05/22 06:39:37;;;;;;;3.60;1.70;;;12.10;74.20;;;;;;5003277;28;20484;-45
2021/05/22 06:42:06;;;;;;;10.60;2.07;;;12.10;73.70;;;;;;5002879;28;20460;-45
2021/05/22 06:44:38;;;;;;;7.20;1.50;;;12.10;74.40;;;;;;5005179;28;20557;-45
2021/05/22 06:47:06;;;;;;;5.83;2.10;;;12.10;74.00;;;;;;5000997;28;20487;-45
2021/05/22 06:49:34;;;;;;;3.13;1.50;;;12.10;74.70;;;;;;5004895;28;20460;-46
2021/05/22 06:52:03;;;;;;;3.10;1.27;;;12.20;74.20;;;;;;5004620;28;20835;-45
2021/05/22 06:54:34;;;;;;;5.30;1.93;;;12.20;74.40;;;;;;4988124;28;20487;-46
2021/05/22 06:57:02;;;;;;;5.90;2.07;;;12.30;74.00;;;;;;5003805;28;20865;-45
2021/05/22 06:59:30;;;;;;;9.43;2.37;;;12.30;73.80;;;;;;5004227;28;20483;-46
2021/05/22 07:01:58;;;;;;;3.90;2.23;;;12.30;73.90;;;;;;5001479;28;20461;-45
2021/05/22 07:04:26;;;;;;;3.17;1.47;;;12.40;74.00;;;;;;5005196;28;20460;-45
2021/05/22 07:06:54;;;;;;;1.93;1.33;;;12.50;73.20;;;;;;5005363;28;20475;-45
2021/05/22 07:09:23;;;;;;;6.80;1.97;;;12.60;73.40;;;;;;5004418;28;21005;-46
2021/05/22 07:11:52;;;;;;;4.63;1.77;;;12.70;72.30;;;;;;5001946;28;20652;-45
2021/05/22 07:14:20;;;;;;;7.93;1.40;;;12.90;73.30;;;;;;5005195;28;20449;-46
2021/05/22 07:16:55;;;;;;;7.07;1.83;;;12.90;71.60;;;;;;5000071;28;21027;-45
2021/05/22 07:19:23;;;;;;;9.37;1.87;;;13.00;71.50;;;;;;5007542;28;20825;-45
2021/05/22 07:21:51;;;;;;;2.83;1.30;;;13.00;72.50;;;;;;5003904;28;20468;-45
2021/05/22 07:24:20;;;;;;;6.50;1.50;;;13.00;71.10;;;;;;5004763;28;20497;-45
2021/05/22 07:26:49;;;;;;;6.57;1.63;;;13.00;72.20;;;;;;5004105;28;20615;-45
2021/05/22 07:29:17;;;;;;;2.87;1.70;;;13.00;72.50;;;;;;4989451;28;20456;-45
2021/05/22 07:31:46;;;;;;;4.23;1.20;;;12.90;71.70;;;;;;5006624;28;20456;-45
2021/05/22 07:34:15;;;;;;;4.10;1.60;;;12.90;71.00;;;;;;4987197;28;20463;-45
2021/05/22 07:36:43;;;;;;;2.10;1.20;;;12.90;71.10;;;;;;5005138;28;20440;-45
2021/05/22 07:39:13;;;;;;;1.90;0.80;;;12.90;70.30;;;;;;5004524;28;20461;-45
2021/05/22 07:41:45;;;;;;;3.70;1.53;;;13.00;70.20;;;;;;5002930;28;20455;-45
2021/05/22 07:44:13;;;;;;;5.50;1.30;;;12.90;70.20;;;;;;5003504;28;20786;-45
2021/05/22 07:46:42;;;;;;;2.30;1.50;;;12.90;69.40;;;;;;5000170;28;20461;-45
2021/05/22 07:49:12;;;;;;;4.47;1.47;;;12.90;70.50;;;;;;5001734;28;20468;-45
2021/05/22 07:51:41;;;;;;;4.23;1.40;;;12.80;69.80;;;;;;5004503;28;20518;-45
2021/05/22 07:54:10;;;;;;;6.00;1.10;;;12.80;69.20;;;;;;5002826;28;20973;-45
2021/05/22 07:56:37;;;;;;;4.23;2.00;;;12.80;69.50;;;;;;5005482;28;20491;-45
2021/05/22 07:59:06;;;;;;;2.80;1.33;;;12.80;70.50;;;;;;5003840;28;20511;-45
2021/05/22 08:01:35;;;;;;;3.40;1.17;;;12.80;70.90;;;;;;5004096;28;20460;-45
2021/05/22 08:04:04;;;;;;;2.70;1.33;;;12.80;70.60;;;;;;5006778;28;20866;-45
2021/05/22 08:06:32;;;;;;;7.43;1.27;;;12.90;69.80;;;;;;5004999;28;20468;-45
2021/05/22 08:09:00;;;;;;;7.20;1.20;;;13.00;70.20;;;;;;5007272;28;20483;-45
2021/05/22 08:11:30;;;;;;;3.47;1.00;;;13.00;69.00;;;;;;5002467;28;21040;-45
2021/05/22 08:13:58;;;;;;;2.37;1.00;;;13.00;69.20;;;;;;5006732;28;20436;-45
2021/05/22 08:16:26;;;;;;;2.33;1.63;;;13.10;69.90;;;;;;5002998;28;20487;-45
2021/05/22 08:18:54;;;;;;;2.67;1.30;;;13.20;69.80;;;;;;5006298;28;20444;-45
2021/05/22 08:21:23;;;;;;;2.13;1.10;;;13.30;68.30;;;;;;5004330;28;20461;-45
2021/05/22 08:23:51;;;;;;;3.07;1.70;;;13.40;68.90;;;;;;5005573;28;20949;-45
2021/05/22 08:26:19;;;;;;;3.80;1.30;;;13.40;67.10;;;;;;4989558;28;20791;-45
2021/05/22 08:29:09;;;;;;;2.27;0.90;;;13.30;67.70;;;;;;5004110;28;20466;-46
2021/05/22 08:31:37;;;;;;;3.80;1.10;;;13.30;67.70;;;;;;5001630;28;20473;-45
2021/05/22 08:34:05;;;;;;;3.13;1.10;;;13.20;68.00;;;;;;5002852;28;20456;-45
2021/05/22 08:36:33;;;;;;;3.70;1.60;;;13.20;67.00;;;;;;5006361;28;20488;-46
2021/05/22 08:39:01;;;;;;;6.17;1.97;;;13.20;68.40;;;;;;5004671;28;20471;-46
2021/05/22 08:41:30;;;;;;;2.23;1.30;;;13.20;68.40;;;;;;5002872;28;20459;-46
2021/05/22 08:43:58;;;;;;;1.07;0.90;;;13.20;68.90;;;;;;5005026;28;20460;-45
2021/05/22 08:46:26;;;;;;;2.23;1.40;;;13.20;68.70;;;;;;5002851;28;20452;-46
2021/05/22 08:48:54;;;;;;;3.57;2.27;;;13.20;67.90;;;;;;5004396;28;20526;-46
2021/05/22 08:51:22;;;;;;;3.77;1.80;;;13.20;69.10;;;;;;5008608;28;20821;-46
2021/05/22 08:53:51;;;;;;;5.30;2.07;;;13.20;68.90;;;;;;5007914;28;20467;-45
2021/05/22 08:56:19;;;;;;;5.10;1.50;;;13.30;68.60;;;;;;5006761;28;20492;-46
2021/05/22 08:58:47;;;;;;;1.77;1.00;;;13.30;68.10;;;;;;4990953;28;20459;-45
2021/05/22 09:01:15;;;;;;;2.57;1.00;;;13.30;67.20;;;;;;5006457;28;20479;-46
2021/05/22 09:03:45;;;;;;;6.13;2.40;;;13.30;67.80;;;;;;5002966;28;20460;-45
2021/05/22 09:06:13;;;;;;;1.80;1.23;;;13.30;68.50;;;;;;5005731;28;20456;-46
2021/05/22 09:08:41;;;;;;;8.57;1.70;;;13.30;68.30;;;;;;5009232;28;20530;-46
2021/05/22 09:11:09;;;;;;;7.53;1.50;;;13.30;68.80;;;;;;5006215;28;20495;-46
2021/05/22 09:13:37;;;;;;;4.47;1.70;;;13.40;68.10;;;;;;5008896;28;20440;-46
2021/05/22 09:16:09;;;;;;;5.73;2.40;;;13.40;67.70;;;;;;5008381;28;20484;-45
2021/05/22 09:18:41;;;;;;;5.40;1.30;;;13.40;67.60;;;;;;5005661;28;21345;-46
2021/05/22 09:21:14;;;;;;;2.33;0.90;;;13.50;66.60;;;;;;5007675;28;20537;-46
2021/05/22 09:23:50;;;;;;;2.03;1.00;;;13.60;66.60;;;;;;5007839;28;20457;-46
2021/05/22 09:26:18;;;;;;;3.77;1.10;;;13.70;66.80;;;;;;5005877;28;20463;-46
2021/05/22 09:28:53;;;;;;;3.80;1.00;;;13.70;66.20;;;;;;5008257;28;20851;-46
2021/05/22 09:31:24;;;;;;;4.53;2.00;;;13.70;64.80;;;;;;5009263;28;20463;-46
2021/05/22 09:34:00;;;;;;;5.03;1.10;;;13.70;65.00;;;;;;5006617;28;21465;-46
2021/05/22 09:36:28;;;;;;;2.93;1.10;;;13.60;65.60;;;;;;5004875;28;20918;-46
2021/05/22 09:38:57;;;;;;;2.50;1.40;;;13.60;65.90;;;;;;5004826;28;20464;-46
2021/05/22 09:41:31;;;;;;;3.73;1.87;;;13.60;65.80;;;;;;5000993;28;20464;-45
2021/05/22 09:44:12;;;;;;;3.90;1.47;;;13.60;65.60;;;;;;5003467;28;20462;-45
2021/05/22 09:46:47;;;;;;;4.40;1.53;;;13.60;65.90;;;;;;5003373;28;20543;-45
2021/05/22 09:49:30;;;;;;;3.30;1.50;;;13.60;65.60;;;;;;4992183;28;20456;-45
2021/05/22 09:52:01;;;;;;;3.50;1.63;;;13.60;65.60;;;;;;5008253;28;20456;-45
2021/05/22 09:54:54;;;;;;;4.77;1.43;;;13.60;66.40;;;;;;5007282;28;20460;-45
2021/05/22 09:57:44;;;;;;;1.50;1.10;;;13.60;65.60;;;;;;5007181;28;20456;-45
2021/05/22 10:00:15;;;;;;;4.60;1.17;;;13.60;64.00;;;;;;5006905;28;20452;-45
2021/05/22 10:02:48;;;;;;;3.47;1.50;;;13.60;64.20;;;;;;5003315;28;20464;-45
2021/05/22 10:05:34;;;;;;;2.60;0.90;;;13.70;63.80;;;;;;5006380;28;20456;-45
2021/05/22 10:08:04;;;;;;;2.87;1.70;;;13.80;64.10;;;;;;5004359;28;20832;-45
2021/05/22 10:10:46;;;;;;;4.10;1.27;;;13.80;65.30;;;;;;5005863;28;20456;-45
2021/05/22 10:13:20;;;;;;;2.70;1.50;;;13.90;64.90;;;;;;5006105;28;20992;-45
2021/05/22 10:15:57;;;;;;;1.93;1.03;;;13.90;65.20;;;;;;5003850;28;20487;-45
2021/05/22 10:18:27;;;;;;;3.33;1.30;;;14.00;65.40;;;;;;5007798;28;20551;-45
2021/05/22 10:20:57;;;;;;;3.07;0.97;;;14.00;66.10;;;;;;4989557;28;20953;-45
2021/05/22 10:23:26;;;;;;;6.60;1.70;;;14.00;65.20;;;;;;5006949;28;20486;-45
2021/05/22 10:25:56;;;;;;;2.73;1.30;;;14.10;65.10;;;;;;5004512;28;20460;-45
2021/05/22 10:28:25;;;;;;;3.93;1.23;;;14.10;64.10;;;;;;5001841;28;20456;-45
2021/05/22 10:30:53;;;;;;;1.60;0.77;;;14.10;64.80;;;;;;5001784;28;20457;-45
2021/05/22 10:33:23;;;;;;;5.13;1.50;;;14.10;64.50;;;;;;5009268;28;20456;-45
2021/05/22 10:35:58;;;;;;;2.90;0.70;;;14.00;65.40;;;;;;5001317;28;21084;-45
2021/05/22 10:38:33;;;;;;;2.23;0.60;;;14.00;65.40;;;;;;5004538;28;20834;-45
2021/05/22 10:41:08;;;;;;;3.10;1.00;;;14.00;65.80;;;;;;5003804;28;21061;-45
2021/05/22 10:43:47;;;;;;;4.63;1.20;;;14.10;66.80;;;;;;5003837;28;20465;-45
2021/05/22 10:46:17;;;;;;;1.90;0.80;;;14.30;66.80;;;;;;5004854;28;20471;-44
2021/05/22 10:48:50;;;;;;;2.23;0.90;;;14.40;64.20;;;;;;5003272;28;20452;-45
2021/05/22 10:51:39;;;;;;;3.20;0.90;;;14.50;64.20;;;;;;5004607;28;20464;-45
2021/05/22 10:54:14;;;;;;;1.33;0.60;;;14.60;63.80;;;;;;5007689;28;20460;-45
2021/05/22 10:57:06;;;;;;;2.60;0.97;;;14.70;64.10;;;;;;5005410;28;20484;-45
2021/05/22 10:59:36;;;;;;;3.30;1.07;;;14.90;63.00;;;;;;5005017;28;20487;-45
2021/05/22 11:02:34;;;;;;;2.47;0.60;;;15.00;62.20;;;;;;5007412;28;20448;-45
2021/05/22 11:05:21;;;;;;;3.73;0.63;;;15.10;60.90;;;;;;5005807;28;20542;-45
2021/05/22 11:08:09;;;;;;;2.50;1.10;;;15.10;60.60;;;;;;5006375;28;20463;-45
2021/05/22 11:10:41;;;;;;;3.13;0.80;;;15.10;62.10;;;;;;5006608;28;20467;-45
2021/05/22 11:13:29;;;;;;;3.27;1.37;;;15.10;61.50;;;;;;5005993;28;20460;-45
2021/05/22 11:15:59;;;;;;;1.60;0.80;;;15.10;62.30;;;;;;5001157;28;20477;-45
2021/05/22 11:18:51;;;;;;;2.00;0.57;;;15.20;63.40;;;;;;5001719;28;20465;-45
2021/05/22 11:21:20;;;;;;;3.50;0.80;;;15.30;62.80;;;;;;5006179;28;20463;-45
2021/05/22 11:23:58;;;;;;;3.23;1.23;;;15.40;63.50;;;;;;5004355;28;20460;-45
2021/05/22 11:27:00;;;;;;;3.40;0.87;;;15.50;62.40;;;;;;5006829;28;20463;-45
2021/05/22 11:29:58;;;;;;;2.47;1.10;;;15.60;60.60;;;;;;5003700;28;20487;-45
2021/05/22 11:32:56;;;;;;;1.50;0.97;;;15.60;61.40;;;;;;5007301;28;20873;-45
2021/05/22 11:35:34;;;;;;;0.63;0.63;;;15.60;61.20;;;;;;5005329;28;20452;-45
2021/05/22 11:38:12;;;;;;;2.43;0.93;;;15.50;61.20;;;;;;5006993;28;20534;-45
2021/05/22 11:41:00;;;;;;;2.17;1.00;;;15.50;60.10;;;;;;5006689;28;20460;-45
2021/05/22 11:43:32;;;;;;;3.40;0.80;;;15.40;61.00;;;;;;5005073;28;20530;-45
2021/05/22 11:46:11;;;;;;;1.03;0.70;;;15.30;61.80;;;;;;5004931;28;20507;-45
2021/05/22 11:48:49;;;;;;;1.63;0.80;;;15.20;63.30;;;;;;5005045;28;20550;-45
2021/05/22 11:51:26;;;;;;;1.40;0.90;;;15.20;63.40;;;;;;5004473;28;20456;-45
2021/05/22 11:54:09;;;;;;;1.63;0.80;;;15.30;62.90;;;;;;5003633;28;20440;-45
2021/05/22 11:56:40;;;;;;;1.30;0.60;;;15.30;62.20;;;;;;4990441;28;20502;-45
2021/05/22 11:59:13;;;;;;;2.67;0.90;;;15.30;63.50;;;;;;5007778;28;20452;-45
2021/05/22 12:01:43;;;;;;;3.70;1.53;;;15.40;61.80;;;;;;5005232;28;20452;-45
2021/05/22 12:04:14;;;;;;;1.80;0.70;;;15.50;61.30;;;;;;5006560;28;20935;-46
2021/05/22 12:06:47;;;;;;;1.93;0.80;;;15.60;61.00;;;;;;5005879;28;20451;-45
2021/05/22 12:09:20;;;;;;;1.87;0.97;;;15.70;59.70;;;;;;5002414;28;20477;-45
2021/05/22 12:12:04;;;;;;;6.23;1.00;;;15.80;59.40;;;;;;5004571;28;20464;-45
2021/05/22 12:14:43;;;;;;;4.67;0.90;;;15.90;57.20;;;;;;5005776;28;20453;-45
2021/05/22 12:17:13;;;;;;;3.37;0.90;;;15.90;57.30;;;;;;5007392;28;20926;-45
2021/05/22 12:19:44;;;;;;;1.57;0.70;;;16.00;55.90;;;;;;5006849;28;20468;-45
2021/05/22 12:22:16;;;;;;;5.70;0.90;;;15.90;56.40;;;;;;5007757;28;20448;-45
2021/05/22 12:24:45;;;;;;;2.60;0.73;;;15.90;56.30;;;;;;5009400;28;20464;-45
2021/05/22 12:27:16;;;;;;;2.30;0.80;;;15.90;57.10;;;;;;5010212;28;20981;-45
2021/05/22 12:29:52;;;;;;;2.63;0.60;;;15.90;56.60;;;;;;5007054;28;20494;-45
2021/05/22 12:32:21;;;;;;;2.40;1.07;;;15.90;57.40;;;;;;5009641;28;20443;-46
2021/05/22 12:34:58;;;;;;;4.70;0.80;;;16.00;57.00;;;;;;5007090;28;20455;-45
2021/05/22 12:37:27;;;;;;;1.03;0.70;;;16.00;57.40;;;;;;5007117;28;20989;-45
2021/05/22 12:40:05;;;;;;;2.43;0.90;;;16.00;57.80;;;;;;5008641;28;20456;-46
2021/05/22 12:42:36;;;;;;;3.53;0.80;;;16.10;57.90;;;;;;5010464;28;20487;-46
2021/05/22 12:45:13;;;;;;;2.20;0.80;;;16.20;57.30;;;;;;5008895;28;20455;-45
2021/05/22 12:47:50;;;;;;;1.83;0.80;;;16.20;57.90;;;;;;5007955;28;20467;-45
2021/05/22 12:50:30;;;;;;;1.33;1.10;;;16.20;57.00;;;;;;5007430;28;20464;-46
2021/05/22 12:53:06;;;;;;;1.23;0.60;;;16.20;56.20;;;;;;5004734;28;20448;-46
2021/05/22 12:55:38;;;;;;;2.40;1.27;;;16.20;57.40;;;;;;5009668;28;20506;-46
2021/05/22 12:58:20;;;;;;;3.70;1.07;;;16.20;57.90;;;;;;5008556;28;20450;-46
2021/05/22 13:00:52;;;;;;;3.00;0.83;;;16.10;61.60;;;;;;5007837;28;20468;-46
2021/05/22 13:03:37;;;;;;;2.33;1.00;;;16.00;62.40;;;;;;5005837;28;20461;-46
2021/05/22 13:06:05;;;;;;;4.07;0.93;;;15.80;65.80;;;;;;5008828;28;20959;-45